Time;durP1;ratioP1;P1;durP2;ratioP2;P2;SDS_P1;SDS_P2;PMS_P1;PMS_P2;Temp;Humidity;BMP_temperature;BMP_pressure;BME280_temperature;BME280_humidity;BME280_pressure;Samples;Min_cycle;Max_cycle;Signal;HPM_P1;HPM_P2
2022/12/19 00:00:22;;;;;;;111.72;55.60;;;0.00;99.90;;;;;;5085090;28;20184;-87
2022/12/19 00:02:48;;;;;;;115.27;64.80;;;0.00;99.90;;;;;;5085545;28;20195;-88
2022/12/19 00:05:14;;;;;;;110.63;38.93;;;0.00;99.90;;;;;;5085827;28;20410;-87
2022/12/19 00:07:40;;;;;;;114.67;48.57;;;0.00;99.90;;;;;;5069583;28;20198;-88
2022/12/19 00:10:06;;;;;;;113.87;42.27;;;0.10;99.90;;;;;;5087468;28;20471;-87
2022/12/19 00:12:32;;;;;;;107.97;43.00;;;0.10;99.90;;;;;;5087782;28;20913;-87
2022/12/19 00:14:58;;;;;;;111.00;46.73;;;0.10;99.90;;;;;;5087394;28;20251;-88
2022/12/19 00:17:24;;;;;;;109.30;46.77;;;0.10;99.90;;;;;;5087559;28;20164;-88
2022/12/19 00:19:50;;;;;;;113.30;46.90;;;0.10;99.90;;;;;;5086746;28;20406;-88
2022/12/19 00:22:19;;;;;;;122.25;42.40;;;0.10;99.90;;;;;;5069433;28;20254;-87
2022/12/19 00:24:45;;;;;;;104.50;44.22;;;0.10;99.90;;;;;;5087116;28;20161;-88
2022/12/19 00:27:10;;;;;;;122.27;52.77;;;0.20;99.90;;;;;;5086770;28;20163;-88
2022/12/19 00:29:36;;;;;;;115.00;41.90;;;0.20;99.90;;;;;;5068357;28;20234;-87
2022/12/19 00:32:02;;;;;;;112.90;47.40;;;0.10;99.90;;;;;;5086692;28;20222;-88
2022/12/19 00:34:27;;;;;;;115.20;56.00;;;0.20;99.90;;;;;;5086742;28;20405;-88
2022/12/19 00:36:53;;;;;;;115.63;49.40;;;0.20;99.90;;;;;;5087214;28;20227;-88
2022/12/19 00:39:19;;;;;;;115.50;42.87;;;0.20;99.90;;;;;;5086871;28;20175;-88
2022/12/19 00:41:45;;;;;;;110.30;43.03;;;0.20;99.90;;;;;;5087361;28;20230;-87
2022/12/19 00:44:16;;;;;;;113.60;46.67;;;0.20;99.90;;;;;;5088036;28;20160;-88
2022/12/19 00:46:42;;;;;;;115.15;37.92;;;0.20;99.90;;;;;;5069901;28;20414;-88
2022/12/19 00:49:08;;;;;;;114.17;46.23;;;0.20;99.90;;;;;;5088018;28;20195;-88
2022/12/19 00:51:38;;;;;;;116.80;46.93;;;0.30;99.90;;;;;;5069950;28;20504;-88
2022/12/19 00:54:08;;;;;;;116.32;43.78;;;0.30;99.90;;;;;;5071088;28;20665;-88
2022/12/19 00:56:35;;;;;;;115.07;47.08;;;0.20;99.90;;;;;;5071203;28;20199;-88
2022/12/19 00:59:01;;;;;;;115.60;44.22;;;0.30;99.90;;;;;;5089442;28;20168;-88
2022/12/19 01:01:33;;;;;;;113.82;43.88;;;0.30;99.90;;;;;;5089573;28;20191;-88
2022/12/19 01:04:00;;;;;;;117.32;40.78;;;0.30;99.90;;;;;;5070268;28;20171;-88
2022/12/19 01:06:27;;;;;;;111.63;48.13;;;0.30;99.90;;;;;;5070079;28;20180;-87
2022/12/19 01:08:53;;;;;;;105.38;41.28;;;0.30;99.90;;;;;;5087635;28;20198;-87
2022/12/19 01:14:04;;;;;;;118.95;46.15;;;0.40;99.90;;;;;;5087817;28;20244;-87
2022/12/19 01:16:30;;;;;;;113.63;63.67;;;0.40;99.90;;;;;;5086903;28;20167;-88
2022/12/19 01:18:55;;;;;;;114.87;43.87;;;0.40;99.90;;;;;;5086585;28;20172;-88
2022/12/19 01:21:21;;;;;;;112.50;62.33;;;0.40;99.90;;;;;;5085741;28;20196;-88
2022/12/19 01:23:47;;;;;;;110.60;40.67;;;0.40;99.90;;;;;;5068507;28;20265;-88
2022/12/19 01:26:13;;;;;;;117.43;65.63;;;0.40;99.90;;;;;;5086532;28;20164;-88
2022/12/19 01:28:38;;;;;;;122.13;55.17;;;0.40;99.90;;;;;;5086897;28;20445;-88
2022/12/19 01:31:05;;;;;;;115.93;41.70;;;0.40;99.90;;;;;;5087671;28;20184;-88
2022/12/19 01:33:34;;;;;;;111.97;42.95;;;0.40;99.90;;;;;;5087040;28;20422;-88
2022/12/19 01:36:06;;;;;;;122.95;67.60;;;0.40;99.90;;;;;;5086893;28;20164;-88
2022/12/19 01:38:35;;;;;;;114.97;50.83;;;0.50;99.90;;;;;;5087336;28;20153;-87
2022/12/19 01:41:02;;;;;;;110.00;38.97;;;0.50;99.90;;;;;;5070347;28;20191;-88
2022/12/19 01:43:31;;;;;;;117.22;45.72;;;0.50;99.90;;;;;;5087924;28;20176;-87
2022/12/19 01:46:01;;;;;;;122.72;53.80;;;0.50;99.90;;;;;;5088048;28;20164;-88
2022/12/19 01:48:37;;;;;;;112.13;54.25;;;0.50;99.90;;;;;;5088739;28;20179;-87
2022/12/19 01:51:11;;;;;;;109.22;45.25;;;0.60;99.90;;;;;;5069874;28;20188;-88
2022/12/19 01:53:42;;;;;;;111.07;36.42;;;0.60;99.90;;;;;;5087639;28;20152;-87
2022/12/19 01:56:10;;;;;;;109.97;48.85;;;0.60;99.90;;;;;;5069613;28;20171;-88
2022/12/19 01:58:40;;;;;;;115.90;38.97;;;0.60;99.90;;;;;;5087730;28;20168;-88
2022/12/19 02:01:06;;;;;;;125.03;63.17;;;0.60;99.90;;;;;;5088025;28;20214;-88
2022/12/19 02:03:35;;;;;;;110.00;42.60;;;0.70;99.90;;;;;;5069024;28;20167;-88
2022/12/19 02:06:03;;;;;;;120.38;38.47;;;0.70;99.90;;;;;;5088157;28;20402;-89
2022/12/19 02:08:30;;;;;;;114.25;40.10;;;0.70;99.90;;;;;;5090663;28;20188;-88
2022/12/19 02:10:55;;;;;;;112.63;43.50;;;0.70;99.90;;;;;;5086945;28;20206;-88
2022/12/19 02:13:22;;;;;;;114.77;40.50;;;0.70;99.90;;;;;;5086601;28;20160;-88
2022/12/19 02:16:00;;;;;;;115.72;45.83;;;0.80;99.90;;;;;;5086236;28;20719;-88
2022/12/19 02:18:44;;;;;;;116.38;36.15;;;0.80;99.90;;;;;;5067955;28;20179;-88
2022/12/19 02:21:16;;;;;;;112.13;39.83;;;0.80;99.90;;;;;;5085194;28;20190;-88
2022/12/19 02:23:57;;;;;;;115.15;44.72;;;0.80;99.90;;;;;;5085729;28;20160;-87
2022/12/19 02:26:41;;;;;;;113.25;38.25;;;0.80;99.90;;;;;;5068120;28;20242;-88
2022/12/19 02:29:38;;;;;;;112.00;38.53;;;0.80;99.90;;;;;;5083982;28;20187;-88
2022/12/19 02:32:13;;;;;;;110.88;49.10;;;0.90;99.90;;;;;;5083502;28;20238;-88
2022/12/19 02:35:21;;;;;;;110.70;42.38;;;0.90;99.90;;;;;;5065498;28;20159;-87
2022/12/19 02:37:54;;;;;;;110.60;35.25;;;0.90;99.90;;;;;;5082771;28;20258;-89
2022/12/19 02:40:24;;;;;;;127.25;69.95;;;0.90;99.90;;;;;;5083354;28;20183;-87
2022/12/19 02:42:57;;;;;;;140.07;98.15;;;0.90;99.90;;;;;;5066392;28;20194;-88
2022/12/19 02:45:26;;;;;;;120.05;47.35;;;0.90;99.90;;;;;;5083117;28;20524;-89
2022/12/19 02:47:52;;;;;;;119.82;45.53;;;0.90;99.90;;;;;;5082776;28;20198;-89
2022/12/19 02:50:18;;;;;;;107.07;40.00;;;1.00;99.90;;;;;;5082005;28;20501;-87
2022/12/19 02:52:46;;;;;;;116.50;40.00;;;0.90;99.90;;;;;;5082977;28;20174;-89
2022/12/19 02:55:17;;;;;;;110.55;35.90;;;0.90;99.90;;;;;;5082037;28;20404;-87
2022/12/19 02:58:08;;;;;;;119.53;46.20;;;1.00;99.90;;;;;;5082788;28;20148;-88
2022/12/19 03:01:00;;;;;;;110.47;41.40;;;1.00;99.90;;;;;;5064338;28;20238;-87
2022/12/19 03:04:07;;;;;;;112.57;41.83;;;1.00;99.90;;;;;;5082080;28;20182;-88
2022/12/19 03:06:52;;;;;;;115.82;54.13;;;1.00;99.90;;;;;;5063197;28;20186;-87
2022/12/19 03:09:30;;;;;;;111.75;37.28;;;1.00;99.90;;;;;;5064368;28;20188;-87
2022/12/19 03:12:04;;;;;;;115.75;43.22;;;1.00;99.90;;;;;;5064385;28;20191;-87
2022/12/19 03:14:31;;;;;;;120.38;72.30;;;1.00;99.90;;;;;;5082312;28;20240;-87
2022/12/19 03:17:03;;;;;;;118.28;58.35;;;1.10;99.90;;;;;;5082461;28;20171;-87
2022/12/19 03:19:30;;;;;;;109.43;35.92;;;1.10;99.90;;;;;;5064702;28;20505;-87
2022/12/19 03:21:56;;;;;;;105.78;38.95;;;1.00;99.90;;;;;;5082508;28;20195;-88
2022/12/19 03:24:21;;;;;;;115.07;35.87;;;1.00;99.90;;;;;;5082305;28;20164;-87
2022/12/19 03:27:10;;;;;;;112.87;40.93;;;1.00;99.90;;;;;;5081647;28;20404;-87
2022/12/19 03:29:52;;;;;;;115.28;40.03;;;1.00;99.90;;;;;;5082097;28;20183;-88
2022/12/19 03:32:21;;;;;;;113.88;38.88;;;1.00;99.90;;;;;;5084239;28;20203;-86
2022/12/19 03:35:01;;;;;;;112.10;39.90;;;1.10;99.90;;;;;;5083407;28;20160;-88
2022/12/19 03:37:30;;;;;;;110.55;36.30;;;1.10;99.90;;;;;;5081792;28;20148;-88
2022/12/19 03:40:06;;;;;;;113.05;43.83;;;1.00;99.90;;;;;;5063858;28;20254;-87
2022/12/19 03:45:35;;;;;;;110.00;46.42;;;1.10;99.90;;;;;;5081973;28;20202;-87
2022/12/19 03:48:14;;;;;;;118.25;37.08;;;1.00;99.90;;;;;;5063619;28;20610;-88
2022/12/19 03:50:57;;;;;;;119.65;45.38;;;1.00;99.90;;;;;;5081167;28;20187;-87
2022/12/19 03:53:29;;;;;;;118.65;50.45;;;1.00;99.90;;;;;;5082001;28;20147;-87
2022/12/19 03:56:17;;;;;;;116.38;40.63;;;1.00;99.90;;;;;;5064351;28;20528;-88
2022/12/19 03:58:50;;;;;;;110.43;40.42;;;1.00;99.90;;;;;;5064280;28;20167;-87
2022/12/19 04:01:18;;;;;;;112.75;42.22;;;1.00;99.90;;;;;;5081691;28;20550;-87
2022/12/19 04:03:44;;;;;;;113.07;44.65;;;1.10;99.90;;;;;;5082059;28;20159;-88
2022/12/19 04:06:10;;;;;;;107.40;42.20;;;1.00;99.90;;;;;;5063491;28;20267;-87
2022/12/19 04:08:37;;;;;;;146.52;111.47;;;1.10;99.90;;;;;;5082089;28;20217;-87
2022/12/19 04:11:27;;;;;;;112.75;43.45;;;1.00;99.90;;;;;;5064471;28;20191;-88
2022/12/19 04:14:00;;;;;;;108.25;40.00;;;1.00;99.90;;;;;;5082266;28;20192;-87
2022/12/19 04:16:51;;;;;;;111.47;38.30;;;1.00;99.90;;;;;;5081883;28;20512;-87
2022/12/19 04:19:46;;;;;;;113.78;37.40;;;1.10;99.90;;;;;;5082448;28;20148;-87
2022/12/19 04:22:21;;;;;;;115.47;47.85;;;1.10;99.90;;;;;;5074397;28;20231;-87
2022/12/19 04:24:49;;;;;;;107.40;37.72;;;1.10;99.90;;;;;;5081942;28;20218;-89
2022/12/19 04:27:15;;;;;;;109.72;41.03;;;1.10;99.90;;;;;;5081659;28;20178;-88
2022/12/19 04:29:42;;;;;;;113.90;37.35;;;1.10;99.90;;;;;;5062569;28;20226;-87
2022/12/19 04:32:08;;;;;;;111.50;39.97;;;1.10;99.90;;;;;;5063054;28;20258;-87
2022/12/19 04:34:34;;;;;;;112.60;35.30;;;1.20;99.90;;;;;;5063878;28;20560;-88
2022/12/19 04:37:02;;;;;;;103.67;32.80;;;1.20;99.90;;;;;;5082061;28;20216;-88
2022/12/19 04:39:28;;;;;;;110.50;36.30;;;1.20;99.90;;;;;;5081037;28;20164;-88
2022/12/19 04:41:54;;;;;;;108.30;33.37;;;1.20;99.90;;;;;;5063154;28;20674;-87
2022/12/19 04:44:20;;;;;;;108.40;35.27;;;1.30;99.90;;;;;;5063995;28;20412;-88
2022/12/19 04:46:46;;;;;;;106.70;33.85;;;1.30;99.90;;;;;;5066229;28;20543;-88
2022/12/19 04:49:11;;;;;;;104.87;33.67;;;1.30;99.90;;;;;;5066360;28;20187;-88
2022/12/19 04:51:37;;;;;;;103.60;33.73;;;1.30;99.90;;;;;;5065872;28;20722;-88
2022/12/19 04:54:03;;;;;;;111.80;34.57;;;1.30;99.90;;;;;;5066492;28;20163;-87
2022/12/19 04:56:28;;;;;;;117.90;38.40;;;1.30;99.90;;;;;;5084460;28;20619;-88
2022/12/19 04:58:58;;;;;;;114.67;34.87;;;1.30;99.90;;;;;;5083725;28;20713;-87
2022/12/19 05:01:25;;;;;;;120.57;31.35;;;1.40;99.90;;;;;;5065529;28;20679;-88
2022/12/19 05:03:51;;;;;;;112.38;33.38;;;1.40;99.90;;;;;;5083329;28;20526;-88
2022/12/19 05:06:18;;;;;;;112.73;33.00;;;1.40;99.90;;;;;;5065631;28;20255;-87
2022/12/19 05:08:44;;;;;;;109.15;35.05;;;1.40;99.90;;;;;;5065727;28;20968;-88
2022/12/19 05:11:12;;;;;;;112.00;42.53;;;1.40;99.90;;;;;;5066283;28;20207;-88
2022/12/19 05:13:38;;;;;;;107.05;39.92;;;1.30;99.90;;;;;;5066053;28;20206;-87
2022/12/19 05:16:07;;;;;;;106.30;34.57;;;1.30;99.90;;;;;;5085930;28;20160;-86
2022/12/19 05:18:34;;;;;;;116.65;42.53;;;1.30;99.90;;;;;;5068631;28;20171;-86
2022/12/19 05:21:00;;;;;;;119.75;50.25;;;1.30;99.90;;;;;;5067808;28;20187;-87
2022/12/19 05:23:26;;;;;;;120.40;45.50;;;1.30;99.90;;;;;;5067726;28;20673;-88
2022/12/19 05:25:52;;;;;;;115.57;38.28;;;1.40;99.90;;;;;;5066100;28;20408;-88
2022/12/19 05:28:18;;;;;;;113.67;39.67;;;1.40;99.90;;;;;;5065431;28;20629;-88
2022/12/19 05:30:45;;;;;;;120.10;43.53;;;1.40;99.90;;;;;;5084442;28;20180;-88
2022/12/19 05:33:30;;;;;;;115.88;41.05;;;1.50;99.90;;;;;;5187033;22;20217;-87
2022/12/19 05:36:29;;;;;;;112.28;34.47;;;1.50;99.90;;;;;;5099987;28;20259;-87
2022/12/19 05:39:51;;;;;;;116.45;42.50;;;1.50;99.90;;;;;;5101916;28;20167;-87
2022/12/19 05:43:09;;;;;;;106.70;37.20;;;1.50;99.90;;;;;;5001619;28;20199;-87
2022/12/19 05:45:46;;;;;;;107.47;32.17;;;1.50;99.90;;;;;;4997052;28;20225;-87
2022/12/19 05:48:34;;;;;;;109.05;36.25;;;1.60;99.90;;;;;;5081948;28;20278;-86
2022/12/19 05:51:07;;;;;;;117.78;44.85;;;1.60;99.90;;;;;;5081782;28;20230;-86
2022/12/19 05:53:35;;;;;;;117.20;38.05;;;1.60;99.90;;;;;;5063331;28;20674;-87
2022/12/19 05:56:26;;;;;;;107.20;38.83;;;1.60;99.90;;;;;;5080894;28;20160;-87
2022/12/19 05:59:01;;;;;;;112.53;40.38;;;1.60;99.90;;;;;;5063842;28;20160;-86
2022/12/19 06:01:33;;;;;;;116.88;48.42;;;1.70;99.90;;;;;;5063452;28;20562;-87
2022/12/19 06:04:29;;;;;;;122.40;45.80;;;1.70;99.90;;;;;;5080945;28;20175;-86
2022/12/19 06:07:02;;;;;;;119.88;44.70;;;1.70;99.90;;;;;;5070872;28;20180;-86
2022/12/19 06:09:41;;;;;;;119.70;46.45;;;1.80;99.90;;;;;;5080772;28;20207;-87
2022/12/19 06:12:10;;;;;;;107.47;39.88;;;1.80;99.90;;;;;;5079974;28;20180;-87
2022/12/19 06:14:45;;;;;;;114.82;44.85;;;1.80;99.90;;;;;;5080179;28;20160;-86
2022/12/19 06:17:19;;;;;;;115.15;40.95;;;1.80;99.90;;;;;;5080399;28;20152;-86
2022/12/19 06:22:53;;;;;;;112.15;45.10;;;1.80;99.90;;;;;;5066354;22;20239;-86
2022/12/19 06:25:40;;;;;;;119.13;45.10;;;1.80;99.90;;;;;;5059605;28;20147;-86
2022/12/19 06:28:16;;;;;;;119.13;43.28;;;1.80;99.90;;;;;;5042146;28;20620;-86
2022/12/19 06:30:51;;;;;;;113.38;41.78;;;1.80;99.90;;;;;;5042496;28;20188;-85
2022/12/19 06:33:51;;;;;;;107.95;38.45;;;1.90;99.90;;;;;;5037785;28;20172;-86
2022/12/19 06:36:29;;;;;;;116.65;46.42;;;1.90;99.90;;;;;;5038765;28;20209;-86
2022/12/19 06:39:39;;;;;;;106.93;41.22;;;2.00;99.90;;;;;;5041441;28;20184;-86
2022/12/19 06:46:09;;;;;;;119.40;44.58;;;2.10;99.90;;;;;;5056747;28;20710;-85
2022/12/19 06:48:44;;;;;;;108.78;43.33;;;2.10;99.90;;;;;;5062956;28;20202;-86
2022/12/19 06:51:16;;;;;;;107.38;42.08;;;2.10;99.90;;;;;;5061797;28;20186;-86
2022/12/19 07:00:57;;;;;;;115.05;44.53;;;2.20;99.90;;;;;;4998249;28;20241;-86
2022/12/19 07:07:40;;;;;;;110.00;44.92;;;2.30;99.90;;;;;;5020489;28;20168;-86
2022/12/19 07:10:39;;;;;;;;;;;;;;;;;;;;;
2022/12/19 07:13:15;;;;;;;100.47;41.72;;;2.30;99.90;;;;;;5059113;28;20204;-86
2022/12/19 07:15:54;;;;;;;109.60;46.67;;;2.40;99.90;;;;;;5059064;28;20149;-86
2022/12/19 07:25:16;;;;;;;113.50;45.78;;;2.40;99.90;;;;;;4997271;28;20221;-85
2022/12/19 07:28:08;;;;;;;120.70;47.80;;;2.40;99.90;;;;;;4975522;28;20174;-86
2022/12/19 07:30:36;;;;;;;116.07;47.05;;;2.40;99.90;;;;;;4999527;28;20261;-86
2022/12/19 07:33:49;;;;;;;105.72;50.80;;;2.50;99.90;;;;;;4999921;28;20254;-86
2022/12/19 07:36:52;;;;;;;110.90;41.75;;;2.40;99.90;;;;;;4982420;28;20209;-86
2022/12/19 07:39:30;;;;;;;104.70;41.00;;;2.50;99.90;;;;;;4970470;28;20197;-85
2022/12/19 07:42:08;;;;;;;112.90;45.65;;;2.50;99.90;;;;;;4979559;28;20190;-85
2022/12/19 07:44:57;;;;;;;;;;;;;;;;;;;;;
2022/12/19 07:48:09;;;;;;;114.85;47.55;;;2.60;99.90;;;;;;5060180;28;20244;-86
2022/12/19 07:54:11;;;;;;;106.47;46.53;;;2.60;99.90;;;;;;5061324;28;20667;-85
2022/12/19 07:57:41;;;;;;;111.95;44.58;;;2.60;99.90;;;;;;5044593;28;20629;-85
2022/12/19 08:00:39;;;;;;;108.68;38.65;;;2.60;99.90;;;;;;5038164;28;20262;-86
2022/12/19 08:03:10;;;;;;;108.50;40.15;;;2.60;99.90;;;;;;5058933;28;20141;-86
2022/12/19 08:11:57;;;;;;;121.20;41.67;;;2.70;99.90;;;;;;5059103;28;20180;-86
2022/12/19 08:15:37;;;;;;;108.38;38.42;;;2.70;99.90;;;;;;5042457;28;20758;-85
2022/12/19 08:18:13;;;;;;;;;;;;;;;;;;;;;
2022/12/19 08:21:47;;;;;;;;;;;;;;;;;;;;;
2022/12/19 08:24:52;;;;;;;107.57;40.10;;;2.80;99.90;;;;;;4953001;28;20698;-86
2022/12/19 08:27:24;;;;;;;109.32;37.42;;;2.80;99.90;;;;;;5007741;28;20536;-86
2022/12/19 08:30:26;;;;;;;115.78;45.30;;;2.80;99.90;;;;;;5042757;28;20224;-85
2022/12/19 08:33:51;;;;;;;;;;;;;;;;;;;;;
2022/12/19 08:40:51;;;;;;;105.35;40.83;;;2.90;99.90;;;;;;5047230;28;20271;-85
2022/12/19 08:47:51;;;;;;;;;;;;;;;;;;;;;
2022/12/19 08:57:40;;;;;;;112.80;37.90;;;3.00;99.90;;;;;;5059356;28;20168;-86
2022/12/19 09:04:11;;;;;;;108.20;37.72;;;3.00;99.90;;;;;;4959924;28;20182;-86
2022/12/19 09:21:13;;;;;;;;;;;;;;;;;;;;;
2022/12/19 09:24:08;;;;;;;;;;;;;;;;;;;;;
2022/12/19 09:30:17;;;;;;;109.45;39.45;;;3.40;99.90;;;;;;5035230;28;20259;-85
2022/12/19 09:33:53;;;;;;;104.07;39.80;;;3.40;99.90;;;;;;5058105;28;20617;-86
2022/12/19 09:39:36;;;;;;;105.40;37.33;;;3.50;99.90;;;;;;5057503;28;20168;-86
2022/12/19 09:46:26;;;;;;;117.40;39.13;;;3.60;99.90;;;;;;5055938;28;20172;-86
2022/12/19 09:52:24;;;;;;;109.55;37.05;;;3.60;99.90;;;;;;4905064;28;20745;-86
2022/12/19 09:55:45;;;;;;;111.03;37.80;;;3.60;99.90;;;;;;4955252;28;20164;-86
2022/12/19 09:58:36;;;;;;;117.05;35.03;;;3.50;99.90;;;;;;4913803;28;20188;-86
2022/12/19 10:05:40;;;;;;;106.82;34.08;;;3.60;99.90;;;;;;4935366;29;20661;-87
2022/12/19 10:09:11;;;;;;;112.93;40.33;;;3.60;99.90;;;;;;4882612;29;20225;-86
2022/12/19 10:12:31;;;;;;;107.88;32.97;;;3.60;99.90;;;;;;4936429;28;20231;-90
2022/12/19 10:15:54;;;;;;;106.10;32.15;;;3.60;99.90;;;;;;4987849;28;20599;-90
2022/12/19 10:19:25;;;;;;;;;;;;;;;;;;;;;
2022/12/19 10:22:32;;;;;;;104.70;32.35;;;3.60;99.90;;;;;;4952263;28;20239;-90
2022/12/19 10:29:36;;;;;;;115.22;30.33;;;3.60;99.90;;;;;;4977547;28;20630;-89
2022/12/19 10:32:47;;;;;;;107.38;34.60;;;3.60;99.90;;;;;;5037069;28;20188;-90
2022/12/19 10:44:26;;;;;;;113.10;36.80;;;3.70;99.90;;;;;;6108096;23;20183;-90
2022/12/19 10:50:20;;;;;;;114.65;41.92;;;3.90;99.90;;;;;;4992782;28;20209;-90
2022/12/19 10:53:28;;;;;;;119.15;40.55;;;3.90;99.90;;;;;;4973293;28;20541;-91
2022/12/19 10:56:33;;;;;;;;;;;;;;;;;;;;;
2022/12/19 11:06:01;;;;;;;108.55;43.83;;;4.20;99.90;;;;;;5127455;23;20220;-90
2022/12/19 11:17:52;;;;;;;116.75;38.47;;;4.20;99.90;;;;;;5864908;23;20225;-90
2022/12/19 11:20:26;;;;;;;111.40;35.65;;;4.30;99.90;;;;;;4995900;28;20614;-90
2022/12/19 11:23:10;;;;;;;108.07;37.25;;;4.30;99.90;;;;;;5013815;28;20588;-91
2022/12/19 11:25:55;;;;;;;102.55;34.35;;;4.30;99.90;;;;;;4996380;28;20189;-91
2022/12/19 11:28:43;;;;;;;112.60;35.95;;;4.30;99.90;;;;;;4983758;28;20205;-90
2022/12/19 11:34:20;;;;;;;108.90;34.67;;;4.40;99.90;;;;;;5078341;28;20214;-86
2022/12/19 11:36:59;;;;;;;124.85;40.17;;;4.40;99.90;;;;;;5080377;28;20186;-86
2022/12/19 11:39:39;;;;;;;108.35;41.58;;;4.40;99.90;;;;;;5080710;28;20162;-86
2022/12/19 11:42:23;;;;;;;109.45;33.60;;;4.40;99.90;;;;;;5080156;28;20243;-87
2022/12/19 11:45:16;;;;;;;109.20;33.55;;;4.40;99.90;;;;;;5061614;28;20631;-86
2022/12/19 11:47:46;;;;;;;105.65;29.67;;;4.50;99.90;;;;;;5062154;28;20167;-86
2022/12/19 11:50:44;;;;;;;106.88;32.28;;;4.50;99.90;;;;;;5080026;28;20163;-86
2022/12/19 11:53:21;;;;;;;110.35;32.50;;;4.50;99.90;;;;;;5060508;28;20239;-86
2022/12/19 11:56:13;;;;;;;107.97;32.65;;;4.50;99.90;;;;;;5062435;28;20197;-86
2022/12/19 11:58:39;;;;;;;105.65;34.65;;;4.50;99.90;;;;;;5062526;28;20669;-86
2022/12/19 12:01:38;;;;;;;107.60;34.67;;;4.60;99.90;;;;;;5080716;28;20183;-86
2022/12/19 12:04:32;;;;;;;113.18;32.58;;;4.50;99.90;;;;;;5080705;28;20235;-86
2022/12/19 12:06:59;;;;;;;111.15;30.10;;;4.50;99.90;;;;;;5080843;28;20167;-85
2022/12/19 12:09:45;;;;;;;124.22;33.70;;;4.50;99.90;;;;;;5079464;28;20235;-86
2022/12/19 12:12:28;;;;;;;112.57;35.78;;;4.50;99.90;;;;;;5080896;28;20656;-85
2022/12/19 12:15:02;;;;;;;102.25;29.40;;;4.50;99.90;;;;;;5080704;28;20167;-86
2022/12/19 12:17:39;;;;;;;105.00;33.50;;;4.50;99.90;;;;;;5063051;28;20639;-86
2022/12/19 12:20:32;;;;;;;100.72;31.60;;;4.50;99.90;;;;;;5081376;28;20166;-86
2022/12/19 12:23:22;;;;;;;102.47;33.65;;;4.60;99.90;;;;;;5081164;28;20178;-86
2022/12/19 12:26:00;;;;;;;99.40;28.42;;;4.50;99.90;;;;;;5063382;28;20176;-85
2022/12/19 12:29:08;;;;;;;95.38;26.15;;;4.60;99.90;;;;;;5080888;28;20266;-86
2022/12/19 12:31:47;;;;;;;103.78;30.73;;;4.60;99.90;;;;;;5067489;28;20265;-86
2022/12/19 12:34:16;;;;;;;103.68;28.85;;;4.60;99.90;;;;;;5063164;28;20172;-85
2022/12/19 12:36:52;;;;;;;99.22;30.50;;;4.70;99.90;;;;;;5079699;28;20160;-86
2022/12/19 12:39:50;;;;;;;97.10;28.60;;;4.70;99.90;;;;;;5064051;28;20171;-86
2022/12/19 12:42:16;;;;;;;95.60;25.58;;;4.70;99.90;;;;;;5082106;28;20195;-86
2022/12/19 12:44:43;;;;;;;105.37;29.47;;;4.80;99.90;;;;;;5063285;28;20586;-86
2022/12/19 12:47:19;;;;;;;99.85;26.30;;;4.80;99.90;;;;;;5063187;28;20191;-86
2022/12/19 12:49:54;;;;;;;95.53;25.02;;;4.80;99.90;;;;;;5079907;28;20187;-86
2022/12/19 12:52:28;;;;;;;98.20;24.45;;;4.80;99.90;;;;;;5062205;28;20211;-86
2022/12/19 12:54:56;;;;;;;98.50;25.25;;;4.90;99.90;;;;;;5079519;28;20157;-86
2022/12/19 12:57:28;;;;;;;95.22;24.92;;;4.90;99.90;;;;;;5080826;28;20160;-87
2022/12/19 13:00:14;;;;;;;97.70;25.38;;;4.90;99.90;;;;;;5077767;28;20255;-86
2022/12/19 13:02:41;;;;;;;99.00;24.48;;;4.90;99.90;;;;;;5058830;28;20255;-86
2022/12/19 13:05:24;;;;;;;97.93;23.42;;;4.90;99.90;;;;;;5058759;28;20639;-86
2022/12/19 13:07:52;;;;;;;96.93;22.30;;;5.00;99.90;;;;;;5081904;28;20160;-87
2022/12/19 13:10:27;;;;;;;90.95;21.30;;;5.00;99.90;;;;;;5080175;28;20164;-84
2022/12/19 13:13:13;;;;;;;91.95;21.85;;;5.00;99.90;;;;;;5061248;28;20163;-84
2022/12/19 13:15:45;;;;;;;93.63;22.10;;;5.10;99.90;;;;;;5078883;28;20148;-84
2022/12/19 13:18:11;;;;;;;90.85;21.55;;;5.10;99.90;;;;;;5070313;28;20168;-85
2022/12/19 13:20:47;;;;;;;88.33;20.40;;;5.10;99.90;;;;;;5068973;28;20230;-84
2022/12/19 13:23:41;;;;;;;87.82;20.40;;;5.20;99.90;;;;;;5087375;28;20534;-85
2022/12/19 13:26:20;;;;;;;97.63;20.83;;;5.10;99.90;;;;;;5067814;28;20262;-84
2022/12/19 13:28:47;;;;;;;93.95;20.98;;;5.10;99.90;;;;;;5069719;28;20198;-85
2022/12/19 13:31:16;;;;;;;90.28;22.77;;;5.00;99.90;;;;;;5088089;28;20184;-85
2022/12/19 13:33:50;;;;;;;95.43;21.77;;;5.00;99.90;;;;;;5086104;28;20191;-85
2022/12/19 13:36:48;;;;;;;92.47;20.92;;;5.00;99.90;;;;;;5085993;28;20152;-85
2022/12/19 13:39:28;;;;;;;98.60;24.13;;;5.00;99.90;;;;;;5085127;28;20519;-85
2022/12/19 13:45:21;;;;;;;105.70;23.50;;;5.00;99.90;;;;;;5085299;28;20245;-85
2022/12/19 13:47:49;;;;;;;97.65;20.90;;;5.00;99.90;;;;;;5084251;28;20213;-85
2022/12/19 13:50:27;;;;;;;91.22;19.58;;;5.00;99.90;;;;;;5083914;28;20168;-85
2022/12/19 13:52:52;;;;;;;93.18;20.90;;;5.00;99.90;;;;;;5065946;28;20167;-85
2022/12/19 13:55:19;;;;;;;98.33;22.80;;;5.00;99.90;;;;;;5083007;28;20239;-85
2022/12/19 13:58:03;;;;;;;91.50;21.55;;;5.00;99.90;;;;;;5082063;28;20830;-85
2022/12/19 14:00:40;;;;;;;96.28;21.95;;;4.90;99.90;;;;;;5062847;28;20724;-85
2022/12/19 14:03:16;;;;;;;98.18;22.73;;;4.90;99.90;;;;;;5080170;28;20246;-85
2022/12/19 14:05:42;;;;;;;99.05;21.02;;;4.90;99.90;;;;;;5080170;28;20179;-85
2022/12/19 14:08:08;;;;;;;91.67;21.30;;;4.90;99.90;;;;;;5079640;28;20188;-85
2022/12/19 14:10:40;;;;;;;95.93;22.63;;;4.90;99.90;;;;;;5080653;28;20430;-85
2022/12/19 14:15:56;;;;;;;96.35;20.48;;;5.00;99.90;;;;;;5080076;28;20258;-85
2022/12/19 14:18:26;;;;;;;87.23;17.83;;;5.00;99.90;;;;;;5077877;28;20631;-85
2022/12/19 14:21:11;;;;;;;95.13;20.88;;;4.90;99.90;;;;;;5079242;28;20184;-85
2022/12/19 14:23:37;;;;;;;89.38;21.83;;;5.00;99.90;;;;;;5079510;28;20515;-85
2022/12/19 14:26:08;;;;;;;87.82;20.52;;;4.90;99.90;;;;;;5061287;28;20191;-85
2022/12/19 14:28:47;;;;;;;90.80;19.70;;;4.90;99.90;;;;;;5081265;28;20180;-85
2022/12/19 14:31:15;;;;;;;95.55;19.00;;;4.90;99.90;;;;;;5064135;28;20206;-85
2022/12/19 14:33:46;;;;;;;90.80;20.67;;;4.90;99.90;;;;;;5082517;28;20208;-85
2022/12/19 14:36:13;;;;;;;95.70;21.33;;;4.90;99.90;;;;;;5064160;28;20214;-85
2022/12/19 14:38:39;;;;;;;96.43;21.25;;;4.90;99.90;;;;;;5082269;28;20214;-85
2022/12/19 14:43:37;;;;;;;89.10;20.15;;;4.90;99.90;;;;;;5064510;28;20567;-85
2022/12/19 14:43:54;;;;;;;89.15;19.90;;;4.80;99.90;;;;;;5082353;28;20190;-85
2022/12/19 14:46:20;;;;;;;96.50;20.63;;;4.80;99.90;;;;;;5082155;28;20163;-85
2022/12/19 14:48:52;;;;;;;91.57;22.60;;;4.80;99.90;;;;;;5064078;28;20195;-85
2022/12/19 14:51:36;;;;;;;86.18;18.70;;;4.80;99.90;;;;;;5081830;28;20591;-85
2022/12/19 14:54:23;;;;;;;84.93;17.58;;;4.80;99.90;;;;;;5063538;28;20251;-85
2022/12/19 14:56:54;;;;;;;82.55;16.58;;;4.80;99.90;;;;;;5081708;28;20144;-85
2022/12/19 14:59:26;;;;;;;83.78;17.90;;;4.90;99.90;;;;;;5064091;28;20557;-85
2022/12/19 15:01:55;;;;;;;86.97;18.17;;;4.90;99.90;;;;;;5063979;28;20187;-85
2022/12/19 15:04:26;;;;;;;84.60;17.80;;;5.00;99.90;;;;;;5082055;28;20254;-85
2022/12/19 15:06:55;;;;;;;82.25;17.45;;;5.20;99.90;;;;;;5065018;28;20156;-85
2022/12/19 15:09:21;;;;;;;83.15;15.55;;;5.30;99.90;;;;;;5081574;28;20199;-85
2022/12/19 15:14:44;;;;;;;82.18;16.45;;;5.40;99.90;;;;;;5081161;28;20396;-85
2022/12/19 15:17:20;;;;;;;84.82;18.15;;;5.50;99.90;;;;;;5063620;28;20164;-85
2022/12/19 15:19:47;;;;;;;84.10;17.48;;;5.60;99.90;;;;;;5062024;28;20168;-85
2022/12/19 15:22:14;;;;;;;84.75;16.98;;;5.60;99.90;;;;;;5061683;28;20183;-85
2022/12/19 15:24:40;;;;;;;80.22;14.55;;;5.60;99.90;;;;;;5062084;28;20239;-85
2022/12/19 15:27:13;;;;;;;81.63;15.00;;;5.60;99.90;;;;;;5060531;28;20163;-85
2022/12/19 15:29:40;;;;;;;80.53;16.60;;;5.60;99.90;;;;;;5079406;28;20184;-85
2022/12/19 15:32:13;;;;;;;79.90;16.88;;;5.60;99.90;;;;;;5063802;28;20221;-85
2022/12/19 15:34:41;;;;;;;89.55;17.35;;;5.60;99.90;;;;;;5066679;28;20623;-85
2022/12/19 15:37:10;;;;;;;83.18;17.17;;;5.60;99.90;;;;;;5085235;28;20231;-85
2022/12/19 15:39:36;;;;;;;82.28;15.80;;;5.60;99.90;;;;;;5067949;28;20550;-85
2022/12/19 15:42:02;;;;;;;82.55;15.52;;;5.60;99.90;;;;;;5067543;28;20187;-86
2022/12/19 15:44:36;;;;;;;79.07;14.73;;;5.60;99.90;;;;;;5085018;28;20227;-85
2022/12/19 15:47:05;;;;;;;82.65;16.65;;;5.50;99.90;;;;;;5066059;28;20167;-85
2022/12/19 15:49:33;;;;;;;81.85;16.65;;;5.50;99.90;;;;;;5064450;28;20187;-86